createdAt,value
2018-05-14T00:00:53.708Z,5.57
2018-05-14T00:03:38.119Z,4.90
2018-05-14T00:06:08.251Z,5.10
2018-05-14T00:08:38.081Z,4.13
2018-05-14T00:11:08.474Z,5.73
2018-05-14T00:13:39.269Z,4.80
2018-05-14T00:16:09.506Z,4.53
2018-05-14T00:18:41.821Z,5.83
2018-05-14T00:21:12.281Z,7.30
2018-05-14T00:23:42.057Z,5.20
2018-05-14T00:26:18.263Z,5.17
2018-05-14T00:28:48.883Z,4.50
2018-05-14T00:31:18.554Z,4.87
2018-05-14T00:33:48.325Z,5.20
2018-05-14T00:36:18.007Z,5.10
2018-05-14T00:38:47.771Z,5.40
2018-05-14T00:41:17.547Z,6.10
2018-05-14T00:43:47.278Z,5.50
2018-05-14T00:46:16.992Z,6.47
2018-05-14T00:48:46.765Z,5.00
2018-05-14T00:51:16.642Z,5.03
2018-05-14T00:53:46.567Z,5.60
2018-05-14T00:56:16.964Z,4.90
2018-05-14T00:58:47.398Z,7.23
2018-05-14T01:01:17.483Z,5.50
2018-05-14T01:03:47.196Z,4.17
2018-05-14T01:06:17.706Z,4.73
2018-05-14T01:08:49.713Z,5.00
2018-05-14T01:11:19.547Z,4.70
2018-05-14T01:13:49.333Z,5.97
2018-05-14T01:16:19.812Z,12.90
2018-05-14T01:18:49.587Z,7.53
2018-05-14T01:21:19.362Z,6.87
2018-05-14T01:23:49.136Z,7.53
2018-05-14T01:26:18.909Z,4.10
2018-05-14T01:28:48.681Z,5.53
2018-05-14T01:31:18.660Z,4.63
2018-05-14T01:33:48.436Z,5.47
2018-05-14T01:36:19.027Z,10.70
2018-05-14T01:38:49.011Z,5.10
2018-05-14T01:41:18.780Z,5.10
2018-05-14T01:43:48.453Z,5.90
2018-05-14T01:46:18.293Z,5.30
2018-05-14T01:48:48.001Z,5.80
2018-05-14T01:51:17.674Z,4.77
2018-05-14T01:53:47.446Z,8.20
2018-05-14T01:56:17.223Z,5.33
2018-05-14T01:58:46.995Z,6.47
2018-05-14T02:01:16.784Z,5.57
2018-05-14T02:03:46.546Z,5.57
2018-05-14T02:06:16.421Z,5.67
2018-05-14T02:08:46.194Z,4.97
2018-05-14T02:11:16.071Z,6.53
2018-05-14T02:13:46.153Z,6.00
2018-05-14T02:16:15.927Z,10.90
2018-05-14T02:18:45.702Z,5.10
2018-05-14T02:21:15.475Z,9.33
2018-05-14T02:23:45.251Z,5.97
2018-05-14T02:26:15.431Z,5.03
2018-05-14T02:28:45.327Z,5.50
2018-05-14T02:31:15.187Z,6.80
2018-05-14T02:33:44.959Z,5.63
2018-05-14T02:36:14.733Z,5.93
2018-05-14T02:38:44.512Z,6.33
2018-05-14T02:41:14.282Z,6.17
2018-05-14T02:43:43.955Z,7.10
2018-05-14T02:46:13.933Z,7.07
2018-05-14T02:48:43.721Z,6.43
2018-05-14T02:51:13.584Z,6.27
2018-05-14T02:53:43.357Z,5.23
2018-05-14T02:56:13.131Z,5.80
2018-05-14T02:58:42.912Z,7.80
2018-05-14T03:01:12.577Z,6.77
2018-05-14T03:03:42.557Z,5.33
2018-05-14T03:06:12.231Z,7.37
2018-05-14T03:08:42.209Z,8.30
2018-05-14T03:11:11.880Z,8.43
2018-05-14T03:13:41.653Z,5.57
2018-05-14T03:16:11.487Z,5.40
2018-05-14T03:18:41.202Z,5.50
2018-05-14T03:21:11.020Z,7.10
2018-05-14T03:23:40.853Z,5.17
2018-05-14T03:26:10.626Z,12.80
2018-05-14T03:28:40.606Z,8.30
2018-05-14T03:31:10.340Z,5.93
2018-05-14T03:33:40.155Z,5.57
2018-05-14T03:36:09.930Z,6.17
2018-05-14T03:38:39.908Z,6.90
2018-05-14T03:41:09.680Z,6.13
2018-05-14T03:43:39.455Z,6.33
2018-05-14T03:46:09.332Z,10.30
2018-05-14T03:48:39.108Z,6.50
2018-05-14T03:51:08.880Z,6.30
2018-05-14T03:53:39.065Z,6.73
2018-05-14T03:56:09.044Z,6.63
2018-05-14T04:00:53.123Z,6.23
2018-05-14T04:04:35.575Z,8.17
2018-05-14T04:07:05.360Z,6.43
2018-05-14T04:09:35.539Z,7.13
2018-05-14T04:12:05.364Z,10.13
2018-05-14T04:14:35.140Z,5.73
2018-05-14T04:17:04.912Z,5.37
2018-05-14T04:19:34.693Z,8.33
2018-05-14T04:22:04.564Z,9.53
2018-05-14T04:24:35.113Z,6.33
2018-05-14T04:27:05.081Z,7.80
2018-05-14T04:29:35.116Z,6.80
2018-05-14T04:32:04.891Z,9.43
2018-05-14T04:34:34.767Z,6.03
2018-05-14T04:37:04.544Z,10.90
2018-05-14T04:39:34.443Z,6.00
2018-05-14T04:42:04.396Z,6.50
2018-05-14T04:44:34.171Z,5.13
2018-05-14T04:47:03.887Z,6.77
2018-05-14T04:49:33.719Z,5.90
2018-05-14T04:52:03.494Z,11.23
2018-05-14T04:54:33.473Z,11.70
2018-05-14T04:57:03.452Z,5.90
2018-05-14T04:59:33.381Z,6.43
2018-05-14T05:02:03.927Z,8.10
2018-05-14T05:04:34.319Z,6.40
2018-05-14T05:07:04.996Z,7.93
2018-05-14T05:09:35.499Z,9.03
2018-05-14T05:12:05.274Z,6.20
2018-05-14T05:14:35.254Z,7.17
2018-05-14T05:17:05.377Z,6.87
2018-05-14T05:19:35.112Z,7.63
2018-05-14T05:22:05.131Z,6.23
2018-05-14T05:24:48.380Z,9.20
2018-05-14T05:27:19.217Z,10.37
2018-05-14T05:29:48.953Z,8.63
2018-05-14T05:32:18.941Z,6.80
2018-05-14T05:34:48.856Z,11.33
2018-05-14T05:37:30.489Z,5.70
2018-05-14T05:40:00.653Z,8.07
2018-05-14T05:42:30.428Z,6.80
2018-05-14T05:45:00.205Z,5.53
2018-05-14T05:47:30.751Z,12.03
2018-05-14T05:50:02.105Z,6.60
2018-05-14T05:52:32.591Z,5.63
2018-05-14T05:55:02.268Z,10.60
2018-05-14T05:57:32.043Z,6.73
2018-05-14T06:00:01.817Z,6.10
2018-05-14T06:02:31.590Z,7.10
2018-05-14T06:05:01.565Z,9.90
2018-05-14T06:07:31.636Z,5.70
2018-05-14T06:10:02.245Z,5.60
2018-05-14T06:12:32.020Z,6.67
2018-05-14T06:15:01.999Z,9.73
2018-05-14T06:17:31.773Z,6.47
2018-05-14T06:20:01.855Z,6.60
2018-05-14T06:22:31.675Z,6.23
2018-05-14T06:25:01.504Z,5.97
2018-05-14T06:27:31.381Z,7.53
2018-05-14T06:30:01.362Z,6.83
2018-05-14T06:32:31.647Z,6.13
2018-05-14T06:35:01.421Z,8.30
2018-05-14T06:37:31.094Z,7.03
2018-05-14T06:40:01.083Z,7.17
2018-05-14T06:42:30.750Z,6.97
2018-05-14T06:45:00.740Z,9.93
2018-05-14T06:47:30.603Z,9.23
2018-05-14T06:50:00.428Z,6.80
2018-05-14T06:52:30.149Z,7.57
2018-05-14T06:54:59.924Z,13.03
2018-05-14T06:57:29.803Z,13.23
2018-05-14T06:59:59.580Z,9.27
2018-05-14T07:02:29.657Z,7.37
2018-05-14T07:04:59.481Z,14.10
2018-05-14T07:07:40.054Z,8.03
2018-05-14T07:10:23.095Z,11.40
2018-05-14T07:12:54.873Z,8.87
2018-05-14T07:15:24.953Z,6.10
2018-05-14T07:17:54.728Z,8.13
2018-05-14T07:20:24.527Z,9.80
2018-05-14T07:22:54.432Z,10.80
2018-05-14T07:25:24.597Z,6.90
2018-05-14T07:27:54.385Z,14.77
2018-05-14T07:30:24.109Z,6.40
2018-05-14T07:32:53.888Z,9.70
2018-05-14T07:35:24.887Z,6.23
2018-05-14T07:38:01.850Z,6.40
2018-05-14T07:40:32.361Z,6.97
2018-05-14T07:43:02.200Z,7.23
2018-05-14T07:45:32.116Z,7.17
2018-05-14T07:48:02.156Z,6.97
2018-05-14T07:50:32.035Z,7.17
2018-05-14T07:53:02.425Z,6.53
2018-05-14T07:55:32.504Z,7.20
2018-05-14T07:58:02.582Z,5.70
2018-05-14T08:00:32.593Z,6.00
2018-05-14T08:03:03.120Z,8.03
2018-05-14T08:05:33.829Z,6.70
2018-05-14T08:08:03.721Z,9.23
2018-05-14T08:10:33.496Z,5.80
2018-05-14T08:13:03.377Z,7.07
2018-05-14T08:15:33.355Z,10.50
2018-05-14T08:18:03.331Z,13.93
2018-05-14T08:20:33.106Z,6.67
2018-05-14T08:23:02.880Z,5.80
2018-05-14T08:25:32.660Z,6.60
2018-05-14T08:28:02.650Z,9.43
2018-05-14T08:30:32.716Z,8.10
2018-05-14T08:33:02.798Z,6.30
2018-05-14T08:35:32.737Z,8.83
2018-05-14T08:38:02.756Z,8.63
2018-05-14T08:40:32.632Z,6.60
2018-05-14T08:43:02.469Z,5.77
2018-05-14T08:45:32.282Z,5.87
2018-05-14T08:48:02.337Z,5.80
2018-05-14T08:50:32.241Z,5.87
2018-05-14T08:53:02.082Z,17.53
2018-05-14T08:55:32.928Z,13.07
2018-05-14T08:58:02.792Z,11.33
2018-05-14T09:00:32.670Z,11.93
2018-05-14T09:03:02.545Z,10.63
2018-05-14T09:05:33.036Z,10.20
2018-05-14T09:08:02.816Z,9.47
2018-05-14T09:10:32.689Z,9.80
2018-05-14T09:13:02.564Z,8.77
2018-05-14T09:15:32.647Z,8.43
2018-05-14T09:18:02.524Z,10.73
2018-05-14T09:20:32.502Z,7.37
2018-05-14T09:23:02.276Z,8.67
2018-05-14T09:25:32.363Z,6.97
2018-05-14T09:28:02.131Z,6.60
2018-05-14T09:30:32.010Z,10.93
2018-05-14T09:33:01.997Z,8.00
2018-05-14T09:35:31.711Z,6.80
2018-05-14T09:38:01.539Z,6.90
2018-05-14T09:40:32.232Z,8.13
2018-05-14T09:43:02.519Z,7.27
2018-05-14T09:45:33.725Z,6.43
2018-05-14T09:48:03.605Z,6.47
2018-05-14T09:50:33.480Z,8.83
2018-05-14T09:53:12.272Z,6.80
2018-05-14T09:55:42.916Z,6.10
2018-05-14T09:58:12.943Z,6.90
2018-05-14T10:00:42.922Z,5.00
2018-05-14T10:03:12.861Z,6.00
2018-05-14T10:05:42.579Z,6.33
2018-05-14T10:08:12.657Z,8.10
2018-05-14T10:10:42.326Z,6.20
2018-05-14T10:13:12.101Z,5.07
2018-05-14T10:15:41.878Z,7.33
2018-05-14T10:18:11.828Z,8.10
2018-05-14T10:20:41.755Z,7.90
2018-05-14T10:23:12.540Z,8.20
2018-05-14T10:25:42.405Z,5.20
2018-05-14T10:28:12.231Z,4.90
2018-05-14T10:30:42.894Z,5.60
2018-05-14T10:33:12.651Z,6.50
2018-05-14T10:35:42.481Z,4.77
2018-05-14T10:38:12.506Z,6.70
2018-05-14T10:40:42.499Z,6.20
2018-05-14T10:43:12.410Z,5.50
2018-05-14T10:45:42.255Z,5.40
2018-05-14T10:48:12.272Z,5.57
2018-05-14T10:50:41.992Z,5.73
2018-05-14T10:53:11.969Z,5.00
2018-05-14T10:55:41.896Z,7.87
2018-05-14T10:58:13.934Z,4.60
2018-05-14T11:00:43.754Z,6.33
2018-05-14T11:03:13.777Z,17.00
2018-05-14T11:05:43.607Z,4.50
2018-05-14T11:08:13.693Z,4.27
2018-05-14T11:10:43.684Z,5.10
2018-05-14T11:13:13.442Z,8.80
2018-05-14T11:15:43.525Z,4.17
2018-05-14T11:18:13.605Z,6.07
2018-05-14T11:20:43.482Z,6.73
2018-05-14T11:23:13.336Z,4.50
2018-05-14T11:25:43.134Z,4.83
2018-05-14T11:28:13.218Z,4.70
2018-05-14T11:30:42.990Z,5.23
2018-05-14T11:33:12.761Z,7.53
2018-05-14T11:35:42.640Z,4.00
2018-05-14T11:38:12.415Z,8.70
2018-05-14T11:40:42.599Z,4.30
2018-05-14T11:43:13.309Z,4.93
2018-05-14T11:45:43.377Z,4.30
2018-05-14T11:48:13.356Z,4.40
2018-05-14T11:50:43.637Z,4.47
2018-05-14T11:53:13.521Z,4.33
2018-05-14T11:55:43.297Z,4.90
2018-05-14T11:58:13.888Z,4.10
2018-05-14T12:00:43.867Z,6.27
2018-05-14T12:03:14.346Z,4.90
2018-05-14T12:05:44.235Z,5.43
2018-05-14T12:08:14.376Z,4.40
2018-05-14T12:10:44.296Z,4.90
2018-05-14T12:13:14.170Z,4.87
2018-05-14T12:15:43.947Z,5.20
2018-05-14T12:18:14.197Z,6.83
2018-05-14T12:20:44.531Z,4.37
2018-05-14T12:23:14.295Z,6.50
2018-05-14T12:25:44.366Z,5.17
2018-05-14T12:28:14.254Z,5.30
2018-05-14T12:30:44.434Z,4.90
2018-05-14T12:33:14.228Z,6.10
2018-05-14T12:35:44.085Z,4.73
2018-05-14T12:38:14.172Z,5.10
2018-05-14T12:40:44.262Z,5.93
2018-05-14T12:43:14.843Z,4.23
2018-05-14T12:45:44.926Z,5.93
2018-05-14T12:48:14.906Z,4.67
2018-05-14T12:50:45.808Z,5.20
2018-05-14T12:53:15.872Z,5.03
2018-05-14T12:55:46.570Z,5.40
2018-05-14T12:58:16.460Z,4.50
2018-05-14T13:00:46.235Z,4.97
2018-05-14T13:03:16.122Z,4.57
2018-05-14T13:05:46.194Z,4.73
2018-05-14T13:08:17.624Z,5.63
2018-05-14T13:10:49.884Z,5.80
2018-05-14T13:13:21.124Z,5.73
2018-05-14T13:15:52.648Z,4.70
2018-05-14T13:18:24.419Z,5.27
2018-05-14T13:20:55.676Z,11.13
2018-05-14T13:23:26.914Z,4.67
2018-05-14T13:25:58.898Z,9.73
2018-05-14T13:28:30.999Z,5.23
2018-05-14T13:31:02.578Z,5.50
2018-05-14T13:33:34.047Z,5.53
2018-05-14T13:36:05.555Z,5.53
2018-05-14T13:38:37.150Z,5.10
2018-05-14T13:41:09.563Z,5.60
2018-05-14T13:43:41.491Z,5.10
2018-05-14T13:46:12.876Z,5.83
2018-05-14T13:48:44.233Z,5.60
2018-05-14T13:51:15.579Z,6.87
2018-05-14T13:53:47.068Z,5.63
2018-05-14T13:56:19.185Z,6.73
2018-05-14T13:58:50.955Z,5.03
2018-05-14T14:01:22.411Z,5.77
2018-05-14T14:03:54.046Z,8.90
2018-05-14T14:06:25.621Z,6.20
2018-05-14T14:08:57.181Z,6.00
2018-05-14T14:11:28.814Z,9.33
2018-05-14T14:14:00.249Z,6.57
2018-05-14T14:16:31.880Z,5.40
2018-05-14T14:19:04.437Z,9.23
2018-05-14T14:21:34.956Z,4.73
2018-05-14T14:24:04.818Z,6.00
2018-05-14T14:58:36.875Z,5.47
2018-05-14T15:01:06.749Z,5.93
2018-05-14T15:03:37.343Z,5.77
2018-05-14T15:06:07.220Z,15.23
2018-05-14T15:08:37.044Z,6.63
2018-05-14T15:11:07.075Z,6.00
2018-05-14T15:13:36.886Z,7.13
2018-05-14T15:16:06.829Z,6.00
2018-05-14T15:18:37.115Z,5.93
2018-05-14T15:21:07.055Z,6.63
2018-05-14T15:23:37.032Z,5.97
2018-05-14T15:26:07.061Z,14.73
2018-05-14T15:28:36.931Z,29.70
2018-05-14T15:31:06.883Z,29.07
2018-05-14T15:33:36.588Z,14.80
2018-05-14T15:36:06.355Z,10.00
2018-05-14T15:38:36.232Z,15.20
2018-05-14T15:41:06.684Z,10.17
2018-05-14T15:43:36.869Z,18.37
2018-05-14T15:46:08.366Z,12.17
2018-05-14T15:48:38.201Z,13.27
2018-05-14T15:51:09.936Z,11.70
2018-05-14T15:53:40.099Z,10.77
2018-05-14T15:56:10.215Z,11.47
2018-05-14T15:58:40.160Z,11.53
2018-05-14T16:01:10.038Z,14.80
2018-05-14T16:03:39.815Z,10.40
2018-05-14T16:06:09.789Z,10.33
2018-05-14T16:08:39.509Z,23.03
2018-05-14T16:11:10.057Z,10.13
2018-05-14T16:13:40.029Z,9.70
2018-05-14T16:16:10.427Z,15.90
2018-05-14T16:18:40.398Z,9.20
2018-05-14T16:21:10.167Z,8.70
2018-05-14T16:23:39.937Z,9.63
2018-05-14T16:26:09.815Z,8.17
2018-05-14T16:28:39.688Z,7.53
2018-05-14T16:31:09.458Z,8.10
2018-05-14T16:33:39.252Z,8.73
2018-05-14T16:36:09.315Z,9.67
2018-05-14T16:38:39.289Z,8.37
2018-05-14T16:41:09.574Z,10.37
2018-05-14T16:43:39.715Z,7.37
2018-05-14T16:46:10.706Z,9.53
2018-05-14T16:48:40.436Z,7.73
2018-05-14T16:51:10.667Z,7.57
2018-05-14T16:53:40.991Z,8.63
2018-05-14T16:56:10.858Z,9.13
2018-05-14T16:58:40.756Z,6.03
2018-05-14T17:01:10.721Z,7.10
2018-05-14T17:03:40.407Z,9.83
2018-05-14T17:06:10.179Z,8.53
2018-05-14T17:08:40.180Z,8.97
2018-05-14T17:11:09.972Z,8.67
2018-05-14T17:13:39.706Z,12.63
2018-05-14T17:16:09.786Z,10.87
2018-05-14T17:18:39.563Z,10.23
2018-05-14T17:21:09.538Z,8.70
2018-05-14T17:23:39.311Z,7.13
2018-05-14T17:26:09.296Z,14.37
2018-05-14T17:28:39.370Z,10.47
2018-05-14T17:31:09.325Z,7.80
2018-05-14T17:33:39.123Z,6.70
2018-05-14T17:36:09.206Z,8.27
2018-05-14T17:38:39.137Z,7.47
2018-05-14T17:41:09.166Z,7.80
2018-05-14T17:43:39.040Z,6.67
2018-05-14T17:46:09.119Z,7.97
2018-05-14T17:48:44.056Z,8.27
2018-05-14T17:51:13.787Z,8.60
2018-05-14T17:53:43.560Z,8.90
2018-05-14T17:56:13.436Z,9.90
2018-05-14T17:58:43.360Z,10.40
2018-05-14T18:01:13.189Z,7.57
2018-05-14T18:03:43.268Z,13.90
2018-05-14T18:06:13.409Z,16.47
2018-05-14T18:08:43.319Z,8.90
2018-05-14T18:11:14.125Z,13.83
2018-05-14T18:13:44.513Z,9.53
2018-05-14T18:16:14.471Z,10.10
2018-05-14T18:18:44.783Z,17.87
2018-05-14T18:21:15.775Z,12.43
2018-05-14T18:23:47.293Z,8.60
2018-05-14T18:26:17.665Z,8.73
2018-05-14T18:28:49.481Z,21.53
2018-05-14T18:31:24.818Z,11.23
2018-05-14T18:33:55.143Z,16.80
2018-05-14T18:36:25.267Z,9.00
2018-05-14T18:38:56.032Z,9.50
2018-05-14T18:41:26.858Z,9.83
2018-05-14T18:43:56.687Z,10.00
2018-05-14T18:46:26.580Z,15.73
2018-05-14T18:48:56.667Z,9.47
2018-05-14T18:51:26.484Z,12.70
2018-05-14T18:53:56.692Z,12.27
2018-05-14T18:56:26.571Z,9.70
2018-05-14T18:58:57.319Z,9.67
2018-05-14T19:01:27.298Z,9.50
2018-05-14T19:03:57.276Z,12.40
2018-05-14T19:06:27.641Z,9.27
2018-05-14T19:08:57.425Z,13.20
2018-05-14T19:11:58.151Z,10.83
2018-05-14T19:14:28.286Z,9.50
2018-05-14T19:18:06.838Z,11.17
2018-05-14T19:20:36.698Z,9.93
2018-05-14T19:24:14.302Z,9.80
2018-05-14T19:26:44.382Z,9.77
2018-05-14T19:29:19.698Z,10.17
2018-05-14T19:31:50.273Z,9.83
2018-05-14T19:34:24.561Z,10.30
2018-05-14T19:36:55.217Z,9.80
2018-05-14T19:39:29.325Z,9.50
2018-05-14T19:41:59.465Z,9.60
2018-05-14T19:44:29.997Z,9.30
2018-05-14T19:47:00.397Z,9.60
2018-05-14T19:49:31.011Z,9.97
2018-05-14T19:52:00.936Z,10.37
2018-05-14T19:54:30.988Z,9.80
2018-05-14T19:57:01.017Z,10.17
2018-05-14T19:59:30.880Z,9.10
2018-05-14T20:02:01.888Z,9.03
2018-05-14T20:04:33.094Z,10.13
2018-05-14T20:07:02.867Z,10.63
2018-05-14T20:09:32.648Z,9.10
2018-05-14T20:12:02.920Z,42.57
2018-05-14T20:14:33.007Z,15.73
2018-05-14T20:17:03.145Z,18.23
2018-05-14T20:19:33.736Z,16.27
2018-05-14T20:22:03.751Z,27.57
2018-05-14T20:24:33.523Z,47.90
2018-05-14T20:27:03.515Z,27.13
2018-05-14T20:29:33.478Z,30.53
2018-05-14T20:32:03.358Z,26.30
2018-05-14T20:34:33.332Z,22.20
2018-05-14T20:37:03.576Z,17.20
2018-05-14T20:39:33.695Z,19.30
2018-05-14T20:42:03.783Z,19.90
2018-05-14T20:44:34.023Z,23.50
2018-05-14T20:47:04.107Z,14.30
2018-05-14T20:49:34.235Z,14.73
2018-05-14T20:52:04.113Z,12.83
2018-05-14T20:54:34.997Z,13.23
2018-05-14T20:57:05.137Z,12.63
2018-05-14T20:59:35.063Z,12.87
2018-05-14T21:02:06.964Z,11.80
2018-05-14T21:04:36.955Z,12.47
2018-05-14T21:07:07.342Z,12.47
2018-05-14T21:09:39.980Z,13.30
2018-05-14T21:12:10.247Z,11.93
2018-05-14T21:14:40.011Z,11.60
2018-05-14T21:17:10.378Z,11.20
2018-05-14T21:19:41.329Z,10.70
2018-05-14T21:22:11.204Z,10.93
2018-05-14T21:24:41.366Z,11.70
2018-05-14T21:27:11.470Z,12.03
2018-05-14T21:29:41.552Z,15.93
2018-05-14T21:32:12.403Z,17.57
2018-05-14T21:34:43.045Z,10.97
2018-05-14T21:37:13.058Z,9.83
2018-05-14T21:39:43.891Z,11.43
2018-05-14T21:42:15.745Z,11.83
2018-05-14T21:44:45.607Z,10.73
2018-05-14T21:47:15.640Z,9.47
2018-05-14T21:49:46.243Z,10.03
2018-05-14T21:52:16.581Z,9.23
2018-05-14T21:54:46.644Z,9.10
2018-05-14T21:57:16.725Z,9.67
2018-05-14T21:59:46.602Z,11.13
2018-05-14T22:02:16.683Z,10.07
2018-05-14T22:04:46.871Z,10.03
2018-05-14T22:07:17.158Z,9.00
2018-05-14T22:09:47.139Z,10.70
2018-05-14T22:12:17.256Z,9.33
2018-05-14T22:14:47.614Z,9.43
2018-05-14T22:17:17.687Z,9.07
2018-05-14T22:19:47.859Z,9.63
2018-05-14T22:22:19.050Z,10.60
2018-05-14T22:24:49.034Z,12.80
2018-05-14T22:27:18.935Z,13.00
2018-05-14T22:29:48.865Z,9.27
2018-05-14T22:32:18.690Z,9.10
2018-05-14T22:34:50.417Z,9.43
2018-05-14T22:37:21.218Z,9.77
2018-05-14T22:39:51.394Z,8.87
2018-05-14T22:42:21.284Z,10.90
2018-05-14T22:44:51.046Z,11.53
2018-05-14T22:47:20.900Z,11.30
2018-05-14T22:49:50.801Z,8.77
2018-05-14T22:52:21.086Z,9.90
2018-05-14T22:54:52.297Z,9.13
2018-05-14T22:57:22.173Z,9.30
2018-05-14T22:59:51.947Z,10.07
2018-05-14T23:02:22.642Z,9.50
2018-05-14T23:04:52.420Z,11.13
2018-05-14T23:07:22.202Z,11.00
2018-05-14T23:09:52.378Z,10.43
2018-05-14T23:12:22.149Z,10.10
2018-05-14T23:14:52.539Z,9.57
2018-05-14T23:17:22.519Z,14.53
2018-05-14T23:19:52.589Z,10.27
2018-05-14T23:22:27.813Z,9.70
2018-05-14T23:24:57.579Z,9.73
2018-05-14T23:27:27.596Z,11.63
2018-05-14T23:29:58.051Z,12.20
2018-05-14T23:32:28.040Z,11.90
2018-05-14T23:34:58.025Z,10.80
2018-05-14T23:37:27.808Z,11.07
2018-05-14T23:39:57.571Z,10.00
2018-05-14T23:42:27.445Z,10.03
2018-05-14T23:44:57.733Z,10.17
2018-05-14T23:47:27.511Z,10.50
2018-05-14T23:49:57.503Z,12.03
2018-05-14T23:52:27.371Z,13.27
2018-05-14T23:54:57.149Z,10.60
2018-05-14T23:57:27.948Z,8.83
2018-05-14T23:59:58.858Z,10.50
